Time;durP1;ratioP1;P1;durP2;ratioP2;P2;SDS_P1;SDS_P2;PMS_P1;PMS_P2;Temp;Humidity;BMP_temperature;BMP_pressure;BME280_temperature;BME280_humidity;BME280_pressure;Samples;Min_cycle;Max_cycle;Signal;HPM_P1;HPM_P2
2024/02/14 00:00:15;;;;;;;;;8.67;8.67;;;;;;;;5080670;28;46169;-76
2024/02/14 00:02:41;;;;;;;;;6.67;6.00;;;;;;;;5081880;27;46073;-77
2024/02/14 00:05:06;;;;;;;;;6.33;5.33;;;;;;;;5064428;28;45488;-76
2024/02/14 00:07:31;;;;;;;;;5.67;4.67;;;;;;;;5061288;28;45623;-76
2024/02/14 00:09:57;;;;;;;;;11.00;7.67;;;;;;;;5060192;28;45569;-76
2024/02/14 00:12:24;;;;;;;;;4.67;4.00;;;;;;;;5059283;28;48371;-76
2024/02/14 00:14:49;;;;;;;;;6.67;6.67;;;;;;;;5060069;28;45940;-77
2024/02/14 00:17:14;;;;;;;;;5.67;5.67;;;;;;;;5061619;28;45341;-77
2024/02/14 00:19:39;;;;;;;;;8.00;8.00;;;;;;;;5061318;28;45348;-76
2024/02/14 00:22:05;;;;;;;;;6.00;6.00;;;;;;;;5060954;28;46187;-76
2024/02/14 00:24:32;;;;;;;;;11.00;9.00;;;;;;;;5059718;28;45350;-77
2024/02/14 00:26:57;;;;;;;;;8.33;7.33;;;;;;;;5059455;28;45259;-76
2024/02/14 00:29:23;;;;;;;;;9.67;9.67;;;;;;;;5061122;28;45975;-76
2024/02/14 00:31:48;;;;;;;;;8.00;8.00;;;;;;;;5060400;28;45287;-77
2024/02/14 00:34:14;;;;;;;;;9.33;9.33;;;;;;;;5059029;28;45303;-77
2024/02/14 00:36:39;;;;;;;;;6.00;6.00;;;;;;;;5060286;28;45291;-76
2024/02/14 00:39:04;;;;;;;;;7.33;7.33;;;;;;;;5058531;28;47068;-77
2024/02/14 00:41:29;;;;;;;;;7.00;6.33;;;;;;;;5060940;28;46443;-77
2024/02/14 00:43:55;;;;;;;;;8.00;7.00;;;;;;;;5059470;28;46155;-77
2024/02/14 00:46:20;;;;;;;;;6.67;6.67;;;;;;;;5060869;28;45295;-77
2024/02/14 00:48:45;;;;;;;;;7.33;7.33;;;;;;;;5060652;28;45531;-77
2024/02/14 00:51:11;;;;;;;;;7.67;7.67;;;;;;;;5060774;28;46119;-77
2024/02/14 00:53:36;;;;;;;;;6.33;6.33;;;;;;;;5059185;28;45638;-76
2024/02/14 00:56:02;;;;;;;;;5.00;5.00;;;;;;;;5061080;28;45408;-77
2024/02/14 00:58:27;;;;;;;;;8.33;8.33;;;;;;;;5077381;28;45568;-77
2024/02/14 01:00:52;;;;;;;;;8.00;8.00;;;;;;;;5080850;27;46317;-77
2024/02/14 01:03:18;;;;;;;;;7.00;7.00;;;;;;;;5081028;27;45431;-76
2024/02/14 01:05:43;;;;;;;;;11.00;9.33;;;;;;;;5079485;28;45315;-77
2024/02/14 01:08:08;;;;;;;;;9.67;9.00;;;;;;;;5080832;27;45511;-77
2024/02/14 01:10:33;;;;;;;;;4.00;4.00;;;;;;;;5080999;27;46364;-77
2024/02/14 01:12:58;;;;;;;;;8.33;8.33;;;;;;;;5080741;27;45346;-77
2024/02/14 01:15:24;;;;;;;;;9.00;9.00;;;;;;;;5080924;27;45457;-77
2024/02/14 01:17:49;;;;;;;;;8.33;8.33;;;;;;;;5079432;27;45420;-77
2024/02/14 01:20:15;;;;;;;;;8.00;7.33;;;;;;;;5078468;28;47113;-77
2024/02/14 01:22:40;;;;;;;;;7.67;7.67;;;;;;;;5080571;28;45306;-77
2024/02/14 01:25:10;;;;;;;;;6.67;6.33;;;;;;;;5077478;28;45268;-77
2024/02/14 01:27:36;;;;;;;;;8.67;7.67;;;;;;;;5058542;28;45983;-77
2024/02/14 01:30:01;;;;;;;;;7.67;7.67;;;;;;;;5058164;28;48640;-77
2024/02/14 01:32:28;;;;;;;;;7.00;6.67;;;;;;;;5057463;28;45532;-77
2024/02/14 01:34:54;;;;;;;;;6.67;6.67;;;;;;;;5059949;28;45396;-77
2024/02/14 01:37:20;;;;;;;;;8.67;7.67;;;;;;;;5058671;28;46205;-77
2024/02/14 01:39:46;;;;;;;;;7.00;7.00;;;;;;;;5058668;28;47131;-77
2024/02/14 01:42:11;;;;;;;;;9.33;8.33;;;;;;;;5059843;28;45329;-77
2024/02/14 01:44:36;;;;;;;;;9.67;8.00;;;;;;;;5060054;28;45362;-76
2024/02/14 01:47:02;;;;;;;;;8.00;7.67;;;;;;;;5058315;28;46541;-77
2024/02/14 01:49:28;;;;;;;;;7.00;7.00;;;;;;;;5057766;28;45267;-77
2024/02/14 01:51:55;;;;;;;;;9.33;8.00;;;;;;;;5059118;28;45326;-77
2024/02/14 01:54:20;;;;;;;;;10.00;9.00;;;;;;;;5059837;28;45149;-76
2024/02/14 01:56:45;;;;;;;;;8.33;8.33;;;;;;;;5062404;28;45468;-77
2024/02/14 01:59:10;;;;;;;;;10.00;9.00;;;;;;;;5079978;27;46293;-76
2024/02/14 02:01:36;;;;;;;;;11.00;10.33;;;;;;;;5079949;27;45187;-77
2024/02/14 02:04:01;;;;;;;;;10.00;8.00;;;;;;;;5078790;28;45227;-76
2024/02/14 02:06:27;;;;;;;;;11.33;9.00;;;;;;;;5079994;28;45512;-77
2024/02/14 02:08:52;;;;;;;;;9.33;8.00;;;;;;;;5078649;28;48057;-77
2024/02/14 02:11:18;;;;;;;;;10.33;10.33;;;;;;;;5079713;27;45325;-77
2024/02/14 02:13:43;;;;;;;;;9.67;8.67;;;;;;;;5079899;28;45312;-77
2024/02/14 02:16:09;;;;;;;;;10.00;10.00;;;;;;;;5078485;28;45916;-77
2024/02/14 02:18:34;;;;;;;;;10.00;10.00;;;;;;;;5079654;27;46281;-77
2024/02/14 02:20:59;;;;;;;;;11.00;11.00;;;;;;;;5079182;27;45460;-77
2024/02/14 02:23:25;;;;;;;;;10.33;9.33;;;;;;;;5077997;28;45299;-76
2024/02/14 02:25:50;;;;;;;;;11.33;9.00;;;;;;;;5078467;27;45310;-77
2024/02/14 02:28:15;;;;;;;;;10.00;10.00;;;;;;;;5077862;28;47907;-77
2024/02/14 02:30:40;;;;;;;;;9.00;9.00;;;;;;;;5078260;28;46000;-76
2024/02/14 02:33:07;;;;;;;;;10.67;9.33;;;;;;;;5079875;27;45401;-77
2024/02/14 02:35:32;;;;;;;;;12.00;10.00;;;;;;;;5079302;27;45370;-77
2024/02/14 02:37:57;;;;;;;;;7.00;6.00;;;;;;;;5079311;27;45461;-77
2024/02/14 02:40:23;;;;;;;;;10.67;9.67;;;;;;;;5078051;28;45333;-77
2024/02/14 02:42:50;;;;;;;;;10.67;8.33;;;;;;;;5079407;27;45318;-77
2024/02/14 02:45:15;;;;;;;;;11.00;10.00;;;;;;;;5079452;27;45263;-76
2024/02/14 02:47:40;;;;;;;;;9.33;9.00;;;;;;;;5077747;28;48489;-77
2024/02/14 02:50:07;;;;;;;;;9.00;9.00;;;;;;;;5077891;28;45784;-76
2024/02/14 02:52:33;;;;;;;;;10.33;10.00;;;;;;;;5079422;27;45452;-76
2024/02/14 02:54:58;;;;;;;;;9.00;8.67;;;;;;;;5079183;28;45273;-76
2024/02/14 02:57:23;;;;;;;;;11.33;11.00;;;;;;;;5068745;28;47261;-76
2024/02/14 02:59:48;;;;;;;;;11.00;10.67;;;;;;;;5058122;28;45545;-76
2024/02/14 03:02:14;;;;;;;;;12.00;9.00;;;;;;;;5059200;28;45271;-77
2024/02/14 03:04:39;;;;;;;;;10.33;10.33;;;;;;;;5062044;28;45354;-76
2024/02/14 03:07:08;;;;;;;;;12.67;11.00;;;;;;;;5061927;28;45327;-77
2024/02/14 03:09:33;;;;;;;;;13.33;11.00;;;;;;;;5062235;28;45214;-77
2024/02/14 03:11:58;;;;;;;;;11.00;9.67;;;;;;;;5059967;28;45355;-77
2024/02/14 03:14:24;;;;;;;;;9.67;9.67;;;;;;;;5062261;28;45477;-76
2024/02/14 03:16:49;;;;;;;;;10.67;10.67;;;;;;;;5062220;28;46089;-76
2024/02/14 03:19:14;;;;;;;;;9.00;9.00;;;;;;;;5060670;28;45178;-77
2024/02/14 03:21:39;;;;;;;;;11.00;11.00;;;;;;;;5060961;28;45309;-76
2024/02/14 03:24:05;;;;;;;;;13.67;11.67;;;;;;;;5060620;28;46057;-76
2024/02/14 03:26:33;;;;;;;;;12.67;10.33;;;;;;;;5060301;28;47545;-77
2024/02/14 03:28:58;;;;;;;;;9.67;9.67;;;;;;;;5062218;28;45264;-77
2024/02/14 03:31:25;;;;;;;;;11.00;9.33;;;;;;;;5061857;28;45489;-77
2024/02/14 03:33:51;;;;;;;;;7.00;7.00;;;;;;;;5061613;28;45363;-77
2024/02/14 03:36:16;;;;;;;;;10.33;10.33;;;;;;;;5060356;28;48111;-77
2024/02/14 03:38:41;;;;;;;;;11.33;9.00;;;;;;;;5062125;28;45300;-76
2024/02/14 03:41:07;;;;;;;;;10.00;9.00;;;;;;;;5062102;28;45339;-77
2024/02/14 03:43:32;;;;;;;;;9.33;8.33;;;;;;;;5059447;28;46531;-77
2024/02/14 03:45:57;;;;;;;;;10.33;9.67;;;;;;;;5061782;28;46405;-77
2024/02/14 03:48:23;;;;;;;;;9.00;9.00;;;;;;;;5061496;28;45397;-77
2024/02/14 03:50:48;;;;;;;;;9.67;9.33;;;;;;;;5061997;28;45263;-78
2024/02/14 03:53:14;;;;;;;;;10.00;10.00;;;;;;;;5061561;28;45342;-77
2024/02/14 03:55:39;;;;;;;;;9.00;9.00;;;;;;;;5061635;28;45282;-77
2024/02/14 03:58:06;;;;;;;;;12.67;10.67;;;;;;;;5073954;28;45348;-77
2024/02/14 04:00:31;;;;;;;;;10.33;8.33;;;;;;;;5080964;27;45436;-77
2024/02/14 04:02:59;;;;;;;;;10.00;9.00;;;;;;;;5080056;28;47063;-77
2024/02/14 04:05:24;;;;;;;;;12.67;9.67;;;;;;;;5081733;27;46212;-77
2024/02/14 04:07:52;;;;;;;;;11.00;11.00;;;;;;;;5081564;27;45463;-77
2024/02/14 04:10:17;;;;;;;;;10.00;10.00;;;;;;;;5081949;27;45175;-77
2024/02/14 04:12:42;;;;;;;;;9.00;9.00;;;;;;;;5070251;28;47038;-77
2024/02/14 04:15:08;;;;;;;;;13.00;11.67;;;;;;;;5061008;28;45331;-77
2024/02/14 04:17:33;;;;;;;;;12.00;11.00;;;;;;;;5060224;28;45280;-77
2024/02/14 04:19:59;;;;;;;;;11.67;9.67;;;;;;;;5058395;28;45533;-76
2024/02/14 04:22:24;;;;;;;;;8.00;8.00;;;;;;;;5059519;28;45911;-77
2024/02/14 04:24:49;;;;;;;;;11.00;11.00;;;;;;;;5061139;28;46398;-77
2024/02/14 04:27:14;;;;;;;;;16.33;14.33;;;;;;;;5060918;28;45332;-77
2024/02/14 04:29:39;;;;;;;;;12.33;12.00;;;;;;;;5061350;28;45276;-76
2024/02/14 04:32:05;;;;;;;;;12.00;12.00;;;;;;;;5060623;28;45289;-77
2024/02/14 04:34:30;;;;;;;;;14.00;13.67;;;;;;;;5060845;28;46596;-77
2024/02/14 04:36:56;;;;;;;;;14.67;11.00;;;;;;;;5061061;28;45276;-76
2024/02/14 04:39:21;;;;;;;;;13.67;13.33;;;;;;;;5061090;28;45270;-76
2024/02/14 04:41:46;;;;;;;;;11.00;10.67;;;;;;;;5059374;28;45530;-77
2024/02/14 04:44:12;;;;;;;;;9.67;9.67;;;;;;;;5059204;28;47324;-77
2024/02/14 04:46:43;;;;;;;;;13.00;12.00;;;;;;;;5059840;28;45455;-77
2024/02/14 04:49:09;;;;;;;;;18.00;14.67;;;;;;;;5060424;28;45501;-77
2024/02/14 04:51:34;;;;;;;;;14.33;14.33;;;;;;;;5059155;28;46056;-76
2024/02/14 04:53:59;;;;;;;;;15.67;15.00;;;;;;;;5060554;28;45209;-77
2024/02/14 04:56:26;;;;;;;;;15.33;14.67;;;;;;;;5060630;28;45247;-77
2024/02/14 04:58:52;;;;;;;;;16.67;16.00;;;;;;;;5081117;27;45397;-77
2024/02/14 05:01:18;;;;;;;;;15.67;14.67;;;;;;;;5078609;28;47418;-77
2024/02/14 05:03:43;;;;;;;;;16.00;15.67;;;;;;;;5079400;27;45513;-77
2024/02/14 05:06:08;;;;;;;;;17.67;16.00;;;;;;;;5079070;28;45386;-77
2024/02/14 05:08:33;;;;;;;;;17.67;14.33;;;;;;;;5080989;27;45302;-77
2024/02/14 05:10:58;;;;;;;;;13.67;11.67;;;;;;;;5080805;27;45660;-77
2024/02/14 05:13:24;;;;;;;;;16.33;15.00;;;;;;;;5080472;27;46259;-77
2024/02/14 05:15:51;;;;;;;;;14.00;14.00;;;;;;;;5080701;27;45381;-76
2024/02/14 05:18:16;;;;;;;;;16.00;13.67;;;;;;;;5080998;27;45307;-77
2024/02/14 05:20:42;;;;;;;;;14.33;14.00;;;;;;;;5079197;28;46441;-77
2024/02/14 05:23:07;;;;;;;;;14.67;13.33;;;;;;;;5080634;27;45193;-77
2024/02/14 05:25:32;;;;;;;;;12.00;11.00;;;;;;;;5080072;27;45394;-77
2024/02/14 05:27:58;;;;;;;;;16.33;14.33;;;;;;;;5079020;28;45264;-77
2024/02/14 05:30:24;;;;;;;;;16.00;12.33;;;;;;;;5080623;27;45224;-77
2024/02/14 05:32:52;;;;;;;;;15.33;15.33;;;;;;;;5079085;28;47223;-76
2024/02/14 05:35:17;;;;;;;;;14.00;10.67;;;;;;;;5080392;27;45357;-77
2024/02/14 05:37:42;;;;;;;;;11.00;11.00;;;;;;;;5080474;27;45256;-76
2024/02/14 05:40:08;;;;;;;;;10.67;10.33;;;;;;;;5078841;28;47235;-76
2024/02/14 05:42:34;;;;;;;;;10.67;10.00;;;;;;;;5080099;27;45891;-77
2024/02/14 05:44:59;;;;;;;;;10.67;10.00;;;;;;;;5080227;27;45401;-76
2024/02/14 05:47:25;;;;;;;;;13.00;12.33;;;;;;;;5078978;28;45368;-76
2024/02/14 05:49:50;;;;;;;;;11.33;10.00;;;;;;;;5079914;27;45374;-77
2024/02/14 05:52:15;;;;;;;;;6.00;6.00;;;;;;;;5080047;27;45458;-76
2024/02/14 05:54:41;;;;;;;;;10.67;10.67;;;;;;;;5078702;28;45345;-77
2024/02/14 05:57:06;;;;;;;;;11.67;10.33;;;;;;;;5074154;27;45469;-76
2024/02/14 05:59:32;;;;;;;;;12.00;9.00;;;;;;;;5059835;28;45319;-76
2024/02/14 06:01:57;;;;;;;;;10.67;9.00;;;;;;;;5059452;28;45371;-77
2024/02/14 06:04:22;;;;;;;;;10.00;10.00;;;;;;;;5059772;28;45277;-77
2024/02/14 06:06:48;;;;;;;;;8.67;8.33;;;;;;;;5059694;28;45159;-77
2024/02/14 06:09:13;;;;;;;;;6.67;6.33;;;;;;;;5058335;28;46912;-77
2024/02/14 06:11:39;;;;;;;;;10.33;10.33;;;;;;;;5059535;28;45254;-76
2024/02/14 06:14:07;;;;;;;;;9.33;8.67;;;;;;;;5059578;28;45288;-77
2024/02/14 06:16:33;;;;;;;;;9.00;9.00;;;;;;;;5058354;28;45425;-77
2024/02/14 06:18:59;;;;;;;;;8.67;6.00;;;;;;;;5059405;28;45699;-77
2024/02/14 06:21:25;;;;;;;;;8.33;8.33;;;;;;;;5059330;28;45346;-77
2024/02/14 06:23:51;;;;;;;;;7.67;7.67;;;;;;;;5058962;28;45405;-78
2024/02/14 06:26:17;;;;;;;;;8.33;8.33;;;;;;;;5058845;28;45292;-77
2024/02/14 06:28:42;;;;;;;;;10.00;10.00;;;;;;;;5058877;28;45366;-77
2024/02/14 06:31:07;;;;;;;;;13.67;10.33;;;;;;;;5057763;28;48274;-78
2024/02/14 06:33:33;;;;;;;;;8.00;7.33;;;;;;;;5057994;28;45349;-77
2024/02/14 06:35:59;;;;;;;;;7.00;7.00;;;;;;;;5059646;28;45235;-77
2024/02/14 06:38:24;;;;;;;;;7.67;7.33;;;;;;;;5062911;28;45275;-77
2024/02/14 06:40:49;;;;;;;;;9.33;9.33;;;;;;;;5062912;28;45374;-77
2024/02/14 06:43:14;;;;;;;;;9.00;9.00;;;;;;;;5061280;28;45230;-77
2024/02/14 06:45:39;;;;;;;;;8.33;8.33;;;;;;;;5061606;28;45430;-76
2024/02/14 06:48:05;;;;;;;;;10.67;9.67;;;;;;;;5046315;28;45543;-77
2024/02/14 06:50:31;;;;;;;;;9.33;9.00;;;;;;;;5046421;28;45379;-77
2024/02/14 06:52:59;;;;;;;;;8.33;8.00;;;;;;;;5060702;28;45281;-77
2024/02/14 06:55:24;;;;;;;;;9.00;8.33;;;;;;;;5061832;28;45363;-78
2024/02/14 06:57:50;;;;;;;;;10.00;10.00;;;;;;;;5061434;28;45988;-77
2024/02/14 07:00:15;;;;;;;;;14.67;11.33;;;;;;;;5061736;28;45250;-77
2024/02/14 07:02:40;;;;;;;;;11.00;11.00;;;;;;;;5060983;28;45319;-76
2024/02/14 07:05:07;;;;;;;;;9.33;9.33;;;;;;;;5061759;28;45546;-77
2024/02/14 07:07:33;;;;;;;;;8.67;8.33;;;;;;;;5061560;28;45319;-77
2024/02/14 07:09:58;;;;;;;;;7.33;7.00;;;;;;;;5061473;28;46244;-77
2024/02/14 07:12:23;;;;;;;;;11.67;10.67;;;;;;;;5060334;28;45914;-76
2024/02/14 07:14:48;;;;;;;;;8.67;7.00;;;;;;;;5061732;28;45394;-77
2024/02/14 07:17:14;;;;;;;;;11.33;10.33;;;;;;;;5062420;28;45252;-77
2024/02/14 07:19:39;;;;;;;;;8.33;8.33;;;;;;;;5062332;28;46085;-77
2024/02/14 07:22:04;;;;;;;;;9.00;9.00;;;;;;;;5062159;28;45460;-76
2024/02/14 07:24:29;;;;;;;;;10.00;8.67;;;;;;;;5061651;28;45435;-76
2024/02/14 07:26:54;;;;;;;;;10.67;10.67;;;;;;;;5061073;28;45524;-76
2024/02/14 07:29:20;;;;;;;;;9.00;8.00;;;;;;;;5059712;28;47913;-77
2024/02/14 07:31:45;;;;;;;;;11.67;11.67;;;;;;;;5061454;28;45338;-76
2024/02/14 07:34:11;;;;;;;;;13.33;13.33;;;;;;;;5060148;28;45484;-77
2024/02/14 07:36:36;;;;;;;;;9.00;8.00;;;;;;;;5061383;28;45528;-77
2024/02/14 07:39:02;;;;;;;;;10.33;10.00;;;;;;;;5061204;28;45526;-77
2024/02/14 07:41:27;;;;;;;;;9.00;9.00;;;;;;;;5061729;28;45463;-77
2024/02/14 07:43:52;;;;;;;;;10.67;10.67;;;;;;;;5046336;28;45754;-78
2024/02/14 07:46:18;;;;;;;;;10.67;10.67;;;;;;;;5060857;28;45401;-78
2024/02/14 07:48:44;;;;;;;;;13.00;11.00;;;;;;;;5058853;28;48668;-78
2024/02/14 07:51:09;;;;;;;;;10.67;10.33;;;;;;;;5061038;28;45340;-78
2024/02/14 07:53:34;;;;;;;;;12.33;11.33;;;;;;;;5060599;28;45295;-79
2024/02/14 07:55:59;;;;;;;;;10.00;10.00;;;;;;;;5059643;28;45442;-78
2024/02/14 07:58:25;;;;;;;;;13.00;11.67;;;;;;;;5060029;28;47535;-77
2024/02/14 08:00:51;;;;;;;;;11.00;11.00;;;;;;;;5060767;28;45338;-77
2024/02/14 08:03:16;;;;;;;;;12.33;10.33;;;;;;;;5060919;28;45516;-77
2024/02/14 08:05:42;;;;;;;;;11.67;10.67;;;;;;;;5062408;28;45313;-78
2024/02/14 08:08:07;;;;;;;;;14.00;12.33;;;;;;;;5061679;28;46492;-77
2024/02/14 08:10:32;;;;;;;;;8.67;8.67;;;;;;;;5057420;28;45421;-78
2024/02/14 08:12:58;;;;;;;;;12.33;10.67;;;;;;;;5059383;28;45277;-79
2024/02/14 08:15:23;;;;;;;;;10.67;9.67;;;;;;;;5060108;28;45464;-79
2024/02/14 08:17:49;;;;;;;;;9.33;9.00;;;;;;;;5063788;28;46645;-80
2024/02/14 08:20:14;;;;;;;;;9.33;9.00;;;;;;;;5063345;28;45275;-78
2024/02/14 08:22:39;;;;;;;;;11.67;11.00;;;;;;;;5064984;28;45274;-80
2024/02/14 08:25:04;;;;;;;;;8.67;8.67;;;;;;;;5066290;28;45352;-80
2024/02/14 08:27:31;;;;;;;;;4.33;4.33;;;;;;;;5082304;28;46248;-79
2024/02/14 08:29:56;;;;;;;;;11.33;9.67;;;;;;;;5080999;28;45975;-79
2024/02/14 08:32:21;;;;;;;;;8.67;7.67;;;;;;;;5082750;27;45523;-77
2024/02/14 08:34:47;;;;;;;;;11.33;9.67;;;;;;;;5080461;27;45456;-79
2024/02/14 08:37:13;;;;;;;;;9.67;9.67;;;;;;;;5068625;28;47484;-78
2024/02/14 08:39:38;;;;;;;;;10.67;9.00;;;;;;;;5060198;28;45259;-78
2024/02/14 08:42:07;;;;;;;;;9.33;8.00;;;;;;;;5059659;28;45350;-80
2024/02/14 08:44:32;;;;;;;;;10.33;10.33;;;;;;;;5051311;28;45674;-78
2024/02/14 08:46:58;;;;;;;;;10.00;8.00;;;;;;;;5055970;28;46192;-79
2024/02/14 08:49:23;;;;;;;;;8.67;8.67;;;;;;;;5058534;28;45746;-79
2024/02/14 08:51:48;;;;;;;;;8.00;8.00;;;;;;;;5057423;28;45950;-79
2024/02/14 08:54:15;;;;;;;;;6.67;6.67;;;;;;;;5074941;28;45880;-78
2024/02/14 08:56:41;;;;;;;;;9.00;9.00;;;;;;;;5075817;27;46177;-77
2024/02/14 08:59:06;;;;;;;;;9.00;9.00;;;;;;;;5057380;28;45349;-78
2024/02/14 09:01:31;;;;;;;;;11.00;8.33;;;;;;;;5059293;28;45729;-78
2024/02/14 09:03:57;;;;;;;;;6.67;6.67;;;;;;;;5059362;28;45382;-78
2024/02/14 09:06:22;;;;;;;;;11.00;10.33;;;;;;;;5059919;28;45690;-77
2024/02/14 09:08:48;;;;;;;;;9.33;9.33;;;;;;;;5056093;28;45979;-78
2024/02/14 09:11:13;;;;;;;;;10.00;10.00;;;;;;;;5059868;28;45546;-78
2024/02/14 09:13:40;;;;;;;;;11.00;10.00;;;;;;;;5059237;28;45420;-78
2024/02/14 09:16:06;;;;;;;;;6.33;6.33;;;;;;;;5058255;28;47175;-78
2024/02/14 09:18:32;;;;;;;;;10.00;8.33;;;;;;;;5056404;28;46723;-78
2024/02/14 09:20:57;;;;;;;;;8.33;8.33;;;;;;;;5059444;28;45256;-79
2024/02/14 09:23:22;;;;;;;;;9.33;9.33;;;;;;;;5060856;28;45376;-80
2024/02/14 09:25:48;;;;;;;;;6.67;6.67;;;;;;;;5057296;28;46620;-79
2024/02/14 09:28:14;;;;;;;;;7.00;6.00;;;;;;;;5056702;28;45378;-80
2024/02/14 09:30:39;;;;;;;;;9.67;9.67;;;;;;;;5059325;28;45302;-79
2024/02/14 09:33:05;;;;;;;;;6.00;6.00;;;;;;;;5057127;28;45342;-79
2024/02/14 09:35:30;;;;;;;;;8.33;7.33;;;;;;;;5058062;28;45398;-79
2024/02/14 09:37:55;;;;;;;;;8.33;8.33;;;;;;;;5058564;28;45421;-80
2024/02/14 09:40:20;;;;;;;;;10.67;10.67;;;;;;;;5060078;28;45355;-80
2024/02/14 09:42:51;;;;;;;;;11.00;8.67;;;;;;;;5057890;28;45386;-81
2024/02/14 09:45:17;;;;;;;;;10.00;10.00;;;;;;;;5059858;28;46211;-79
2024/02/14 09:47:43;;;;;;;;;9.33;8.33;;;;;;;;5056804;28;45378;-80
2024/02/14 09:50:09;;;;;;;;;9.00;9.00;;;;;;;;5056608;28;45498;-79
2024/02/14 09:52:36;;;;;;;;;8.00;7.33;;;;;;;;5057489;28;45698;-78
2024/02/14 09:55:03;;;;;;;;;9.00;7.67;;;;;;;;5043023;28;47984;-79
2024/02/14 09:57:29;;;;;;;;;9.00;9.00;;;;;;;;5056829;28;45343;-78
2024/02/14 09:59:56;;;;;;;;;11.00;9.67;;;;;;;;5060298;28;45280;-78
2024/02/14 10:02:21;;;;;;;;;9.33;9.33;;;;;;;;5057448;28;46314;-79
2024/02/14 10:04:47;;;;;;;;;10.67;10.67;;;;;;;;5057863;28;46083;-78
2024/02/14 10:07:12;;;;;;;;;13.00;11.33;;;;;;;;5060570;28;45311;-79
2024/02/14 10:09:41;;;;;;;;;12.33;12.33;;;;;;;;5058037;28;45345;-78
2024/02/14 10:12:08;;;;;;;;;10.33;10.00;;;;;;;;5057291;28;45247;-78
2024/02/14 10:14:34;;;;;;;;;12.00;11.00;;;;;;;;5057722;28;45757;-78
2024/02/14 10:16:59;;;;;;;;;12.33;10.33;;;;;;;;5059229;28;45409;-79
2024/02/14 10:19:24;;;;;;;;;13.00;11.33;;;;;;;;5058615;28;45529;-79
2024/02/14 10:21:57;;;;;;;;;13.67;11.00;;;;;;;;5061846;28;46288;-78
2024/02/14 10:24:23;;;;;;;;;11.00;11.00;;;;;;;;5047772;28;47353;-78
2024/02/14 10:26:49;;;;;;;;;11.67;11.67;;;;;;;;5048136;28;45406;-79
2024/02/14 10:29:15;;;;;;;;;12.67;12.33;;;;;;;;5049179;28;45342;-78
2024/02/14 10:31:40;;;;;;;;;11.00;9.67;;;;;;;;5057952;28;45311;-78
2024/02/14 10:34:06;;;;;;;;;12.00;12.00;;;;;;;;5051084;28;46168;-79
2024/02/14 10:36:34;;;;;;;;;10.67;9.00;;;;;;;;5048551;28;45360;-77
2024/02/14 10:38:59;;;;;;;;;12.00;11.00;;;;;;;;5069406;28;45301;-77
2024/02/14 10:41:24;;;;;;;;;10.33;10.33;;;;;;;;5062981;28;45574;-80
2024/02/14 10:43:50;;;;;;;;;11.00;11.00;;;;;;;;5060244;28;45258;-79
2024/02/14 10:46:19;;;;;;;;;10.00;8.00;;;;;;;;5060769;28;45239;-79
2024/02/14 10:48:45;;;;;;;;;8.33;8.00;;;;;;;;5060918;28;45413;-80
2024/02/14 10:51:12;;;;;;;;;15.00;13.33;;;;;;;;5062731;28;45451;-79
2024/02/14 10:53:39;;;;;;;;;10.00;10.00;;;;;;;;5062926;28;45365;-80
2024/02/14 10:56:04;;;;;;;;;12.67;12.33;;;;;;;;5059273;28;45445;-78
2024/02/14 10:58:30;;;;;;;;;9.00;7.00;;;;;;;;5076005;28;45314;-79
2024/02/14 11:00:56;;;;;;;;;10.33;10.33;;;;;;;;5079941;28;45370;-78
2024/02/14 11:03:22;;;;;;;;;11.67;11.00;;;;;;;;5067274;27;45494;-80
2024/02/14 11:05:49;;;;;;;;;14.00;12.33;;;;;;;;5059462;28;45425;-79
2024/02/14 11:08:15;;;;;;;;;11.33;11.33;;;;;;;;5056664;28;45353;-78
2024/02/14 11:10:40;;;;;;;;;12.00;12.00;;;;;;;;5056047;28;46076;-79
2024/02/14 11:13:09;;;;;;;;;11.00;11.00;;;;;;;;5055515;28;47264;-79
2024/02/14 11:15:35;;;;;;;;;13.67;13.00;;;;;;;;5058356;28;45332;-79
2024/02/14 11:18:04;;;;;;;;;13.33;13.33;;;;;;;;5059550;27;45299;-81
2024/02/14 11:20:34;;;;;;;;;14.33;11.67;;;;;;;;5060711;28;45562;-80
2024/02/14 11:23:06;;;;;;;;;12.33;12.33;;;;;;;;5059552;28;45351;-78
2024/02/14 11:25:35;;;;;;;;;15.33;15.00;;;;;;;;5059902;28;45353;-78
2024/02/14 11:28:03;;;;;;;;;14.00;13.67;;;;;;;;5060464;28;45408;-78
2024/02/14 11:30:34;;;;;;;;;13.67;13.00;;;;;;;;5060512;28;45347;-77
2024/02/14 11:33:15;;;;;;;;;11.00;11.00;;;;;;;;5061052;28;45751;-77
2024/02/14 11:35:41;;;;;;;;;13.67;13.67;;;;;;;;5060145;28;45543;-81
2024/02/14 11:38:07;;;;;;;;;14.00;13.00;;;;;;;;5060098;28;45421;-79
2024/02/14 11:40:32;;;;;;;;;18.33;18.33;;;;;;;;5061370;28;45532;-79
2024/02/14 11:42:57;;;;;;;;;14.33;13.00;;;;;;;;5058836;28;47464;-78
2024/02/14 11:45:22;;;;;;;;;18.33;17.33;;;;;;;;5061212;28;45510;-78
2024/02/14 11:47:48;;;;;;;;;19.33;16.00;;;;;;;;5060880;28;45500;-78
2024/02/14 11:50:14;;;;;;;;;15.67;14.67;;;;;;;;5059416;28;45975;-77
2024/02/14 11:52:39;;;;;;;;;14.67;13.33;;;;;;;;5059141;28;47677;-77
2024/02/14 11:55:04;;;;;;;;;10.67;10.67;;;;;;;;5060859;28;45355;-78
2024/02/14 11:57:29;;;;;;;;;7.67;7.67;;;;;;;;5066658;28;45834;-78
2024/02/14 11:59:57;;;;;;;;;13.67;12.67;;;;;;;;5059357;28;47361;-79
2024/02/14 12:02:22;;;;;;;;;11.67;11.00;;;;;;;;5060417;28;45386;-79
2024/02/14 12:04:50;;;;;;;;;13.67;12.67;;;;;;;;5060066;28;45520;-79
2024/02/14 12:07:15;;;;;;;;;10.00;10.00;;;;;;;;5057782;28;45989;-78
2024/02/14 12:09:40;;;;;;;;;11.33;10.00;;;;;;;;5042494;28;47790;-77
2024/02/14 12:12:06;;;;;;;;;10.67;10.67;;;;;;;;5060389;28;45426;-79
2024/02/14 12:14:32;;;;;;;;;11.33;10.33;;;;;;;;5060026;28;45395;-79
2024/02/14 12:17:03;;;;;;;;;12.33;10.00;;;;;;;;5058868;28;45326;-78
2024/02/14 12:19:28;;;;;;;;;14.00;11.67;;;;;;;;5058687;28;46230;-78
2024/02/14 12:21:56;;;;;;;;;10.33;10.00;;;;;;;;5058353;28;45657;-78
2024/02/14 12:24:23;;;;;;;;;11.00;11.00;;;;;;;;5055177;28;45417;-79
2024/02/14 12:26:48;;;;;;;;;13.00;11.33;;;;;;;;5053231;28;45312;-80
2024/02/14 12:29:14;;;;;;;;;9.67;9.00;;;;;;;;5049360;28;45419;-80
2024/02/14 12:31:39;;;;;;;;;12.67;10.00;;;;;;;;5059706;28;47161;-79
2024/02/14 12:34:04;;;;;;;;;11.00;11.00;;;;;;;;5059053;28;45195;-78
2024/02/14 12:36:30;;;;;;;;;12.00;12.00;;;;;;;;5060858;28;45200;-79
2024/02/14 12:38:55;;;;;;;;;12.33;10.67;;;;;;;;5056061;28;45280;-79
2024/02/14 12:41:21;;;;;;;;;9.67;9.67;;;;;;;;5055823;28;45976;-78
2024/02/14 12:43:48;;;;;;;;;14.00;13.00;;;;;;;;5060805;28;45275;-78
2024/02/14 12:46:13;;;;;;;;;11.67;11.00;;;;;;;;5050515;28;45634;-78
2024/02/14 12:48:38;;;;;;;;;8.00;8.00;;;;;;;;5056464;28;45340;-80
2024/02/14 12:51:04;;;;;;;;;12.33;11.33;;;;;;;;5058802;28;47051;-80
2024/02/14 12:53:29;;;;;;;;;12.67;12.33;;;;;;;;5059636;28;45488;-78
2024/02/14 12:55:54;;;;;;;;;9.00;9.00;;;;;;;;5059829;28;45330;-78
2024/02/14 12:58:19;;;;;;;;;12.00;10.00;;;;;;;;5072342;28;45393;-78
2024/02/14 13:00:44;;;;;;;;;9.67;9.67;;;;;;;;5057933;28;45450;-79
2024/02/14 13:03:10;;;;;;;;;8.67;8.33;;;;;;;;5062815;28;45460;-79
2024/02/14 13:05:36;;;;;;;;;7.33;6.67;;;;;;;;5058622;28;45427;-79
2024/02/14 13:08:01;;;;;;;;;7.33;7.00;;;;;;;;5059570;28;46894;-82
2024/02/14 13:10:26;;;;;;;;;10.00;9.00;;;;;;;;5059745;28;46540;-83
2024/02/14 13:12:51;;;;;;;;;10.67;10.67;;;;;;;;5045565;28;45386;-80
2024/02/14 13:15:17;;;;;;;;;10.00;9.67;;;;;;;;5055376;28;45510;-79
2024/02/14 13:17:42;;;;;;;;;10.67;9.67;;;;;;;;5060564;28;45590;-79
2024/02/14 13:20:08;;;;;;;;;10.67;9.00;;;;;;;;5060014;28;46531;-80
2024/02/14 13:22:33;;;;;;;;;6.33;6.33;;;;;;;;5048130;28;45639;-79
2024/02/14 13:25:00;;;;;;;;;8.00;6.67;;;;;;;;5054247;28;45854;-79
2024/02/14 13:27:25;;;;;;;;;8.67;8.33;;;;;;;;5057465;28;45326;-78
2024/02/14 13:29:50;;;;;;;;;12.00;8.33;;;;;;;;5059318;28;46041;-79
2024/02/14 13:32:16;;;;;;;;;6.00;6.00;;;;;;;;5057800;28;45598;-78
2024/02/14 13:34:41;;;;;;;;;8.00;8.00;;;;;;;;5057524;28;45742;-77
2024/02/14 13:37:06;;;;;;;;;7.33;7.33;;;;;;;;5059646;28;45154;-77
2024/02/14 13:39:31;;;;;;;;;5.75;5.25;;;;;;;;5058182;28;46935;-77
2024/02/14 13:41:59;;;;;;;;;9.00;7.00;;;;;;;;5059520;28;45404;-77
2024/02/14 13:44:24;;;;;;;;;6.75;6.75;;;;;;;;5058602;28;45410;-77
2024/02/14 13:46:50;;;;;;;;;6.25;6.25;;;;;;;;5059107;28;45359;-77
2024/02/14 13:49:21;;;;;;;;;5.00;5.00;;;;;;;;5057630;28;47184;-76
2024/02/14 13:51:46;;;;;;;;;6.25;5.75;;;;;;;;5059161;28;45291;-78
2024/02/14 13:54:11;;;;;;;;;5.00;4.75;;;;;;;;5059519;28;45274;-77
2024/02/14 13:56:37;;;;;;;;;7.25;5.50;;;;;;;;5060929;28;45488;-78
2024/02/14 13:59:02;;;;;;;;;6.00;6.00;;;;;;;;5057830;28;47248;-78
2024/02/14 14:01:27;;;;;;;;;7.75;7.00;;;;;;;;5058085;28;45355;-78
2024/02/14 14:03:54;;;;;;;;;5.25;5.25;;;;;;;;5057924;28;45555;-76
2024/02/14 14:06:19;;;;;;;;;6.75;6.75;;;;;;;;5059443;28;45359;-78
2024/02/14 14:08:45;;;;;;;;;4.75;4.75;;;;;;;;5059143;28;46287;-78
2024/02/14 14:11:10;;;;;;;;;4.50;4.50;;;;;;;;5059165;28;45493;-77
2024/02/14 14:13:35;;;;;;;;;5.75;5.00;;;;;;;;5059395;28;45342;-77
2024/02/14 14:16:00;;;;;;;;;7.00;7.00;;;;;;;;5059392;28;45316;-78
2024/02/14 14:18:26;;;;;;;;;8.50;5.75;;;;;;;;5058889;28;46294;-77
2024/02/14 14:20:52;;;;;;;;;6.00;5.50;;;;;;;;5057887;28;45390;-78